Time;durP1;ratioP1;P1;durP2;ratioP2;P2;SDS_P1;SDS_P2;PMS_P1;PMS_P2;Temp;Humidity;BMP_temperature;BMP_pressure;BME280_temperature;BME280_humidity;BME280_pressure;Samples;Min_cycle;Max_cycle;Signal;HPM_P1;HPM_P2
2022/03/06 00:00:37;;;;;;;8.00;5.22;;;;;;;2.82;67.26;102532.94;5035791;27;100882;-34
2022/03/06 00:03:04;;;;;;;7.75;4.47;;;;;;;2.75;68.06;102526.72;5035942;27;96612;-34
2022/03/06 00:05:30;;;;;;;8.60;4.07;;;;;;;2.78;67.49;102535.63;5035943;27;96926;-34
2022/03/06 00:07:56;;;;;;;9.60;5.25;;;;;;;2.71;68.02;102529.41;5035242;27;100713;-34
2022/03/06 00:10:22;;;;;;;11.73;5.85;;;;;;;2.68;66.62;102530.31;5035796;27;100957;-34
2022/03/06 00:12:47;;;;;;;7.25;3.90;;;;;;;2.65;67.89;102535.66;5036007;27;96522;-34
2022/03/06 00:15:12;;;;;;;4.88;3.53;;;;;;;2.63;67.67;102540.13;5054080;27;111749;-34
2022/03/06 00:17:38;;;;;;;9.02;4.07;;;;;;;2.59;67.56;102535.66;5053508;27;116949;-34
2022/03/06 00:20:08;;;;;;;6.80;3.70;;;;;;;2.60;68.17;102532.13;5052885;27;125831;-34
2022/03/06 00:22:33;;;;;;;11.52;5.43;;;;;;;2.54;67.19;102542.81;5035367;27;96973;-34
2022/03/06 00:24:59;;;;;;;6.32;2.95;;;;;;;2.49;67.67;102537.44;5054185;27;96806;-34
2022/03/06 00:27:24;;;;;;;3.78;3.03;;;;;;;2.57;68.00;102555.28;5054016;27;97997;-34
2022/03/06 00:29:50;;;;;;;8.60;3.13;;;;;;;2.47;67.92;102531.22;5054036;27;97791;-34
2022/03/06 00:32:15;;;;;;;10.77;4.75;;;;;;;2.52;67.14;102544.59;5035207;27;96713;-34
2022/03/06 00:34:42;;;;;;;14.63;4.85;;;;;;;2.47;67.62;102538.34;5034879;27;108796;-34
2022/03/06 00:37:08;;;;;;;5.40;3.60;;;;;;;2.38;67.57;102533.88;5053788;27;97928;-34
2022/03/06 00:39:34;;;;;;;5.20;3.13;;;;;;;2.42;67.76;102541.03;5053751;27;99162;-34
2022/03/06 00:42:00;;;;;;;7.82;4.68;;;;;;;2.47;67.73;102541.91;5053782;27;96475;-34
2022/03/06 00:44:25;;;;;;;4.53;3.08;;;;;;;2.44;67.94;102546.38;5053731;27;97090;-34
2022/03/06 00:46:51;;;;;;;8.45;4.72;;;;;;;2.37;68.16;102550.84;5053079;27;97948;-34
2022/03/06 00:49:16;;;;;;;6.38;3.63;;;;;;;2.34;67.64;102538.34;5052577;27;126264;-34
2022/03/06 00:51:41;;;;;;;15.43;6.53;;;;;;;2.30;67.38;102535.69;5052824;27;120141;-34
2022/03/06 00:54:12;;;;;;;5.85;3.10;;;;;;;2.34;68.53;102562.44;5053618;27;96797;-34
2022/03/06 00:56:38;;;;;;;6.35;3.95;;;;;;;2.35;67.93;102560.63;5052975;27;113067;-35
2022/03/06 00:59:03;;;;;;;6.18;3.63;;;;;;;2.27;67.41;102554.41;5052387;27;126504;-35
2022/03/06 01:01:28;;;;;;;7.95;2.30;;;;;;;2.29;68.86;102563.31;5053259;27;96560;-35
2022/03/06 01:03:54;;;;;;;5.40;2.30;;;;;;;2.26;67.85;102571.31;5053709;27;96750;-35
2022/03/06 01:06:19;;;;;;;3.70;2.15;;;;;;;2.22;69.02;102567.78;5052534;27;122727;-35
2022/03/06 01:08:44;;;;;;;7.65;4.82;;;;;;;2.21;68.52;102568.63;5051602;27;99203;-34
2022/03/06 01:11:09;;;;;;;7.82;4.40;;;;;;;2.19;68.54;102575.75;5052026;27;121609;-35
2022/03/06 01:13:35;;;;;;;4.47;2.67;;;;;;;2.27;68.87;102589.16;5053286;27;96809;-35
2022/03/06 01:16:00;;;;;;;10.60;4.35;;;;;;;2.24;67.42;102578.44;5052221;27;127253;-35
2022/03/06 01:18:25;;;;;;;9.38;4.07;;;;;;;2.23;68.47;102592.72;5052101;27;126150;-35
2022/03/06 01:20:50;;;;;;;6.43;3.20;;;;;;;2.24;68.61;102595.41;5033886;27;123048;-35
2022/03/06 01:23:16;;;;;;;3.63;2.97;;;;;;;2.19;67.51;102582.91;5052330;27;120559;-35
2022/03/06 01:25:41;;;;;;;5.00;3.78;;;;;;;2.16;68.11;102594.47;5053185;27;97911;-35
2022/03/06 01:28:07;;;;;;;3.85;2.05;;;;;;;2.19;68.41;102596.25;5053453;27;97760;-35
2022/03/06 01:30:32;;;;;;;4.35;3.10;;;;;;;2.12;67.98;102590.94;5052702;27;99585;-35
2022/03/06 01:32:57;;;;;;;11.40;3.67;;;;;;;2.12;68.71;102601.63;5052918;27;96888;-34
2022/03/06 01:35:23;;;;;;;3.88;2.42;;;;;;;2.13;68.03;102607.84;5052383;27;97943;-35
2022/03/06 01:37:48;;;;;;;5.78;2.33;;;;;;;2.16;68.03;102605.19;5052984;27;97749;-34
2022/03/06 01:40:18;;;;;;;9.02;3.95;;;;;;;2.04;67.67;102600.69;5052101;27;122606;-35
2022/03/06 01:42:45;;;;;;;3.00;2.10;;;;;;;1.98;68.94;102594.44;5034498;27;96847;-35
2022/03/06 01:45:12;;;;;;;6.57;3.03;;;;;;;2.06;67.63;102616.75;5034199;27;101072;-35
2022/03/06 01:47:41;;;;;;;8.48;3.40;;;;;;;2.07;68.97;102610.50;5034203;27;100186;-35
2022/03/06 01:50:16;;;;;;;4.25;2.65;;;;;;;1.98;67.48;102602.47;5052779;27;96499;-35
2022/03/06 01:52:42;;;;;;;4.00;2.50;;;;;;;1.99;67.81;102612.28;5035073;27;96542;-35
2022/03/06 01:55:08;;;;;;;5.07;3.38;;;;;;;1.92;68.43;102617.59;5034145;27;100592;-35
2022/03/06 01:57:33;;;;;;;5.63;3.45;;;;;;;1.94;67.71;102609.59;5052275;27;99241;-35
2022/03/06 02:00:00;;;;;;;4.13;2.38;;;;;;;1.91;68.32;102598.91;5052184;27;96809;-35
2022/03/06 02:02:38;;;;;;;4.10;2.38;;;;;;;1.93;68.29;102597.09;5033925;27;96831;-34
2022/03/06 02:05:16;;;;;;;4.18;2.50;;;;;;;1.93;68.04;102618.47;5052170;27;98473;-35
2022/03/06 02:07:42;;;;;;;3.03;1.85;;;;;;;1.86;67.89;102616.66;5051672;27;97330;-35
2022/03/06 02:10:08;;;;;;;2.30;1.88;;;;;;;1.88;68.43;102622.91;5052347;27;96461;-34
2022/03/06 02:12:34;;;;;;;2.85;2.03;;;;;;;1.83;67.95;102606.88;5034021;27;96816;-34
2022/03/06 02:15:04;;;;;;;4.45;2.28;;;;;;;1.79;67.87;102605.09;5052188;27;97995;-35
2022/03/06 02:17:30;;;;;;;10.73;3.08;;;;;;;1.88;67.81;102615.81;5052643;27;97424;-35
2022/03/06 02:20:01;;;;;;;5.60;3.25;;;;;;;1.82;67.60;102602.44;5053486;27;96518;-35
2022/03/06 02:22:32;;;;;;;10.53;3.63;;;;;;;1.84;67.28;102619.34;5056190;27;96724;-35
2022/03/06 02:24:58;;;;;;;5.55;3.25;;;;;;;1.77;68.07;102609.53;5036958;27;101021;-35
2022/03/06 02:27:24;;;;;;;3.78;2.85;;;;;;;1.77;67.35;102612.22;5037470;27;100788;-35
2022/03/06 02:29:49;;;;;;;5.55;2.40;;;;;;;1.74;66.93;102609.53;5056114;27;96873;-35
2022/03/06 02:32:17;;;;;;;7.55;2.63;;;;;;;1.80;67.40;102630.91;5037006;27;103647;-35
2022/03/06 02:34:45;;;;;;;3.40;2.55;;;;;;;1.79;67.13;102623.81;5037184;27;100981;-35
2022/03/06 02:37:11;;;;;;;3.97;2.65;;;;;;;1.79;67.14;102615.78;5037003;27;103475;-35
2022/03/06 02:39:37;;;;;;;6.15;3.30;;;;;;;1.77;67.25;102614.88;5037053;27;96714;-35
2022/03/06 02:42:04;;;;;;;9.43;3.10;;;;;;;1.77;67.55;102617.56;5055817;27;112669;-34
2022/03/06 02:44:30;;;;;;;1.92;1.48;;;;;;;1.75;67.82;102608.63;5037131;27;101107;-35
2022/03/06 02:46:55;;;;;;;11.65;3.30;;;;;;;1.78;67.37;102616.66;5037139;27;100636;-35
2022/03/06 02:49:21;;;;;;;7.55;3.78;;;;;;;1.70;67.18;102605.94;5055316;27;96517;-35
2022/03/06 02:51:47;;;;;;;4.53;1.77;;;;;;;1.76;66.86;102610.41;5055705;27;96735;-35
2022/03/06 02:54:17;;;;;;;4.25;2.25;;;;;;;1.70;67.46;102603.28;5036840;27;100738;-35
2022/03/06 02:56:45;;;;;;;5.47;3.28;;;;;;;1.82;67.36;102617.56;5036866;27;100800;-35
2022/03/06 02:59:10;;;;;;;4.20;2.78;;;;;;;1.84;67.36;102613.13;5037623;27;96549;-34
2022/03/06 03:01:40;;;;;;;3.47;2.88;;;;;;;1.83;67.27;102614.00;5054447;27;121594;-35
2022/03/06 03:04:06;;;;;;;3.97;2.47;;;;;;;1.86;68.15;102630.94;5055210;27;99451;-35
2022/03/06 03:06:31;;;;;;;2.58;1.52;;;;;;;1.87;67.79;102619.34;5055414;27;96681;-35
2022/03/06 03:08:57;;;;;;;3.25;2.58;;;;;;;1.87;67.33;102624.69;5055396;27;96451;-35
2022/03/06 03:11:22;;;;;;;4.30;2.65;;;;;;;1.81;67.55;102603.34;5036812;27;96855;-35
2022/03/06 03:13:48;;;;;;;6.47;2.58;;;;;;;1.80;67.42;102617.56;5036066;27;101273;-35
2022/03/06 03:16:13;;;;;;;7.80;3.28;;;;;;;1.82;67.43;102625.59;5055221;27;98656;-35
2022/03/06 03:18:38;;;;;;;4.72;2.65;;;;;;;1.75;67.88;102621.09;5054370;27;114763;-34
2022/03/06 03:21:04;;;;;;;5.97;2.90;;;;;;;1.73;68.66;102621.09;5054050;27;121863;-35
2022/03/06 03:23:29;;;;;;;6.40;3.05;;;;;;;1.77;67.70;102630.91;5054809;27;97857;-35
2022/03/06 03:25:54;;;;;;;6.70;3.00;;;;;;;1.75;67.87;102635.34;5054454;27;104538;-35
2022/03/06 03:28:19;;;;;;;4.18;2.65;;;;;;;1.75;67.85;102634.47;5054377;27;115902;-35
2022/03/06 03:30:45;;;;;;;5.00;3.47;;;;;;;1.65;68.07;102629.09;5053820;27;121427;-35
2022/03/06 03:33:10;;;;;;;3.63;2.22;;;;;;;1.62;67.92;102630.84;5053034;27;126582;-35
2022/03/06 03:35:35;;;;;;;2.33;2.00;;;;;;;1.68;69.09;102642.44;5054441;27;98078;-35
2022/03/06 03:38:01;;;;;;;8.80;2.92;;;;;;;1.68;68.68;102645.13;5053442;27;123331;-35
2022/03/06 03:40:26;;;;;;;6.15;3.17;;;;;;;1.65;68.39;102634.44;5054859;27;96724;-35
2022/03/06 03:42:51;;;;;;;2.63;2.13;;;;;;;1.61;68.81;102629.06;5053774;27;126694;-35
2022/03/06 03:45:17;;;;;;;3.53;2.65;;;;;;;1.66;68.47;102638.88;5054334;27;101114;-35
2022/03/06 03:47:42;;;;;;;5.75;2.80;;;;;;;1.63;69.16;102641.53;5053884;27;118073;-35
2022/03/06 03:50:09;;;;;;;3.95;2.65;;;;;;;1.54;68.87;102628.13;5054386;27;96806;-35
2022/03/06 03:52:34;;;;;;;2.40;2.10;;;;;;;1.53;68.72;102626.38;5036179;27;100949;-35
2022/03/06 03:54:59;;;;;;;3.47;2.47;;;;;;;1.56;68.45;102634.38;5054907;27;97795;-35
2022/03/06 03:57:25;;;;;;;1.73;1.60;;;;;;;1.53;69.20;102630.81;5054801;27;96447;-34
2022/03/06 03:59:51;;;;;;;4.78;2.60;;;;;;;1.53;68.79;102636.16;5054186;27;103775;-35
2022/03/06 04:02:16;;;;;;;3.03;2.05;;;;;;;1.52;69.00;102637.03;5035196;27;101104;-35
2022/03/06 04:04:41;;;;;;;3.63;2.25;;;;;;;1.54;69.08;102652.16;5054265;27;109542;-35
2022/03/06 04:07:07;;;;;;;3.47;2.40;;;;;;;1.48;68.87;102645.03;5053629;27;96770;-35
2022/03/06 04:09:33;;;;;;;4.97;3.42;;;;;;;1.50;69.36;102655.69;5054417;27;96611;-34
2022/03/06 04:11:58;;;;;;;3.72;2.65;;;;;;;1.42;69.44;102644.97;5054347;27;97695;-35
2022/03/06 04:14:23;;;;;;;2.90;2.30;;;;;;;1.47;69.49;102648.56;5053901;27;99036;-35
2022/03/06 04:16:49;;;;;;;7.55;3.70;;;;;;;1.42;69.10;102647.66;5054649;27;96474;-35
2022/03/06 04:19:14;;;;;;;7.40;3.83;;;;;;;1.42;69.28;102650.31;5053568;27;121517;-35
2022/03/06 04:21:39;;;;;;;7.47;3.10;;;;;;;1.43;69.13;102648.53;5054354;27;97365;-35
2022/03/06 04:24:05;;;;;;;3.92;3.13;;;;;;;1.42;69.37;102650.31;5053850;27;99147;-35
2022/03/06 04:26:30;;;;;;;4.80;2.85;;;;;;;1.37;69.33;102652.09;5035391;27;97568;-35
2022/03/06 04:28:56;;;;;;;2.90;1.67;;;;;;;1.38;69.46;102651.22;5054192;27;96741;-34
2022/03/06 04:31:21;;;;;;;5.75;4.15;;;;;;;1.32;69.68;102650.28;5053481;27;99212;-35
2022/03/06 04:33:46;;;;;;;5.65;3.08;;;;;;;1.37;68.96;102664.53;5053578;27;106577;-35
2022/03/06 04:36:12;;;;;;;5.40;3.40;;;;;;;1.35;70.45;102668.97;5052747;27;122346;-34
2022/03/06 04:38:38;;;;;;;3.38;2.42;;;;;;;1.31;70.04;102662.75;5053950;27;97273;-35
2022/03/06 04:41:04;;;;;;;7.78;4.85;;;;;;;1.33;69.00;102668.06;5035279;27;100593;-35
2022/03/06 04:43:29;;;;;;;3.60;2.67;;;;;;;1.27;70.24;102666.25;5035424;27;100752;-35
2022/03/06 04:45:55;;;;;;;3.70;2.38;;;;;;;1.40;70.88;102685.91;5053705;27;98018;-35
2022/03/06 04:48:20;;;;;;;2.25;2.05;;;;;;;1.41;71.74;102677.91;5053517;27;96797;-35
2022/03/06 04:50:45;;;;;;;2.85;2.53;;;;;;;1.38;69.61;102677.00;5052544;27;118209;-35
2022/03/06 04:53:11;;;;;;;3.88;2.50;;;;;;;1.34;70.13;102686.78;5052660;27;124469;-35
2022/03/06 04:55:36;;;;;;;3.00;2.58;;;;;;;1.37;70.94;102685.91;5053628;27;96707;-34
2022/03/06 04:58:01;;;;;;;9.20;4.28;;;;;;;1.35;69.43;102696.56;5053649;27;96829;-35
2022/03/06 05:00:27;;;;;;;4.13;2.55;;;;;;;1.33;70.07;102694.75;5053593;27;97505;-34
2022/03/06 05:02:52;;;;;;;3.97;2.55;;;;;;;1.28;69.82;102694.72;5053447;27;97858;-35
2022/03/06 05:05:18;;;;;;;4.82;2.80;;;;;;;1.36;69.99;102708.13;5052628;27;120040;-35
2022/03/06 05:07:43;;;;;;;5.20;2.83;;;;;;;1.21;69.90;102696.47;5053627;27;96713;-34
2022/03/06 05:10:12;;;;;;;1.77;1.60;;;;;;;1.19;69.93;102698.25;5053466;27;97805;-35
2022/03/06 05:12:40;;;;;;;4.93;2.58;;;;;;;1.28;70.97;102706.28;5053117;27;98116;-35
2022/03/06 05:15:07;;;;;;;3.70;2.83;;;;;;;1.24;70.17;102696.50;5034510;27;98287;-34
2022/03/06 05:17:32;;;;;;;5.78;3.50;;;;;;;1.26;69.12;102699.16;5034838;27;98119;-35
2022/03/06 05:19:58;;;;;;;3.35;2.42;;;;;;;1.23;70.21;102702.72;5052962;27;98030;-34
2022/03/06 05:22:23;;;;;;;10.57;3.85;;;;;;;1.26;69.42;102713.44;5052831;27;98996;-34
2022/03/06 05:24:48;;;;;;;2.03;1.40;;;;;;;1.27;69.85;102699.19;5052379;27;121849;-34
2022/03/06 05:27:13;;;;;;;2.00;1.38;;;;;;;1.24;69.87;102699.19;5052244;27;121543;-35
2022/03/06 05:29:39;;;;;;;4.47;3.00;;;;;;;1.18;69.84;102690.22;5053193;27;97897;-34
2022/03/06 05:32:04;;;;;;;3.08;1.85;;;;;;;1.31;69.98;102713.47;5052768;27;114042;-35
2022/03/06 05:34:31;;;;;;;4.45;3.08;;;;;;;1.17;69.21;102693.75;5052540;27;96559;-34
2022/03/06 05:36:56;;;;;;;3.63;2.88;;;;;;;1.21;69.43;102711.59;5052807;27;96806;-35
2022/03/06 05:39:21;;;;;;;2.50;2.05;;;;;;;1.20;69.65;102715.16;5052079;27;99650;-35
2022/03/06 05:41:47;;;;;;;3.92;3.47;;;;;;;1.16;69.69;102721.34;5051849;27;125174;-35
2022/03/06 05:44:12;;;;;;;4.50;3.35;;;;;;;1.09;69.68;102714.16;5052787;27;96651;-35
2022/03/06 05:46:38;;;;;;;5.80;1.83;;;;;;;1.12;69.46;102725.78;5053157;27;96811;-35
2022/03/06 05:49:12;;;;;;;4.60;2.55;;;;;;;1.09;69.98;102720.41;5052418;27;97880;-34
2022/03/06 05:51:38;;;;;;;2.95;2.45;;;;;;;1.12;69.53;102717.78;5034401;27;101263;-35
2022/03/06 05:54:03;;;;;;;3.67;3.15;;;;;;;1.02;69.12;102727.44;5052107;27;96612;-35
2022/03/06 05:56:28;;;;;;;3.75;3.10;;;;;;;0.97;69.62;102725.63;5052790;27;96851;-35
2022/03/06 05:58:54;;;;;;;2.90;2.38;;;;;;;0.92;70.27;102724.69;5051688;27;126613;-35
2022/03/06 06:01:19;;;;;;;4.03;2.45;;;;;;;0.98;69.69;102730.09;5051724;27;125566;-35
2022/03/06 06:03:44;;;;;;;8.77;4.40;;;;;;;1.01;68.75;102743.47;5051038;27;121321;-35
2022/03/06 06:06:09;;;;;;;3.67;2.65;;;;;;;0.90;70.12;102740.69;5051916;27;112170;-35
2022/03/06 06:08:35;;;;;;;4.72;3.00;;;;;;;0.92;70.54;102736.25;5035422;27;126469;-35
2022/03/06 06:11:00;;;;;;;3.03;2.53;;;;;;;0.94;69.68;102744.28;5031522;28;118773;-35
2022/03/06 06:13:26;;;;;;;2.80;2.10;;;;;;;0.87;70.13;102737.13;5032221;28;96685;-35
2022/03/06 06:15:51;;;;;;;2.50;2.13;;;;;;;0.90;70.22;102750.47;5032279;28;96784;-35
2022/03/06 06:18:18;;;;;;;4.22;2.38;;;;;;;0.90;70.33;102751.34;5013746;28;97496;-35
2022/03/06 06:20:43;;;;;;;9.18;3.10;;;;;;;0.89;70.62;102748.69;5032358;28;98328;-34
2022/03/06 06:23:08;;;;;;;2.08;1.50;;;;;;;0.88;70.87;102747.78;5032342;28;96599;-35
2022/03/06 06:25:34;;;;;;;3.95;2.38;;;;;;;0.97;69.83;102762.97;5031151;28;119089;-35
2022/03/06 06:27:59;;;;;;;3.47;3.10;;;;;;;0.91;69.96;102757.63;5031168;28;99269;-35
2022/03/06 06:30:24;;;;;;;2.88;2.42;;;;;;;0.91;69.77;102760.28;5031217;28;126735;-34
2022/03/06 06:32:50;;;;;;;3.28;2.35;;;;;;;0.90;69.80;102775.38;5031266;28;98052;-35
2022/03/06 06:35:15;;;;;;;2.08;1.85;;;;;;;0.80;70.05;102771.72;5031894;28;96735;-35
2022/03/06 06:37:40;;;;;;;4.05;1.95;;;;;;;0.86;70.29;102778.91;5030612;28;126917;-35
2022/03/06 06:40:06;;;;;;;5.25;2.55;;;;;;;0.77;70.04;102766.34;5030679;28;126547;-35
2022/03/06 06:42:32;;;;;;;2.97;2.60;;;;;;;0.75;70.39;102775.22;5013592;28;97831;-35
2022/03/06 06:44:57;;;;;;;3.13;1.90;;;;;;;0.83;69.72;102785.09;5031631;28;115406;-35
2022/03/06 06:47:22;;;;;;;3.13;1.92;;;;;;;0.89;69.95;102794.94;5012225;28;126976;-35
2022/03/06 06:49:48;;;;;;;3.05;2.75;;;;;;;0.85;69.50;102794.00;5030909;28;126433;-35
2022/03/06 06:52:13;;;;;;;10.18;3.30;;;;;;;0.91;70.45;102794.97;5031324;28;96530;-35
2022/03/06 06:54:39;;;;;;;5.15;2.83;;;;;;;0.98;69.50;102796.81;5030741;28;116215;-34
2022/03/06 06:57:04;;;;;;;8.40;3.40;;;;;;;0.94;69.61;102801.19;5031707;28;97913;-35
2022/03/06 06:59:29;;;;;;;3.13;2.53;;;;;;;0.97;69.33;102805.66;5030527;28;127131;-35
2022/03/06 07:01:55;;;;;;;3.08;1.63;;;;;;;0.89;69.51;102796.72;5013152;28;96612;-35
2022/03/06 07:04:20;;;;;;;3.28;2.90;;;;;;;0.99;69.40;102812.81;5030996;28;121585;-34
2022/03/06 07:06:45;;;;;;;4.05;2.80;;;;;;;0.99;69.34;102810.13;5033439;27;117011;-35
2022/03/06 07:09:11;;;;;;;2.20;1.98;;;;;;;1.04;69.42;102818.19;5053647;27;97175;-35
2022/03/06 07:11:36;;;;;;;3.80;2.13;;;;;;;1.02;69.17;102820.84;5054636;27;114630;-35
2022/03/06 07:14:01;;;;;;;4.53;3.50;;;;;;;0.98;68.77;102811.03;5054287;27;121436;-35
2022/03/06 07:16:27;;;;;;;4.13;2.40;;;;;;;1.07;69.47;102820.88;5054520;27;97860;-35
2022/03/06 07:18:53;;;;;;;8.00;2.95;;;;;;;1.09;69.65;102819.13;5054173;27;119962;-35
2022/03/06 07:21:19;;;;;;;2.53;1.83;;;;;;;1.13;69.17;102820.94;5055346;27;96456;-35
2022/03/06 07:23:44;;;;;;;1.95;1.60;;;;;;;1.12;69.02;102808.50;5055155;27;96632;-35
2022/03/06 07:26:09;;;;;;;3.38;2.53;;;;;;;1.17;68.98;102817.44;5055090;27;97205;-34
2022/03/06 07:28:35;;;;;;;7.55;2.53;;;;;;;1.34;68.77;102846.06;5054147;27;118765;-35
2022/03/06 07:31:00;;;;;;;7.40;2.70;;;;;;;1.33;68.38;102825.56;5054639;27;96462;-35
2022/03/06 07:33:25;;;;;;;2.15;1.85;;;;;;;1.40;68.79;102830.09;5054313;27;120694;-34
2022/03/06 07:35:51;;;;;;;3.55;2.30;;;;;;;1.61;68.65;102854.28;5054022;27;117024;-35
2022/03/06 07:38:16;;;;;;;4.32;2.33;;;;;;;1.73;68.57;102849.94;5054034;27;116089;-34
2022/03/06 07:40:41;;;;;;;2.55;1.67;;;;;;;1.85;68.41;102858.03;5054407;27;96514;-35
2022/03/06 07:43:07;;;;;;;2.08;1.75;;;;;;;1.90;67.94;102856.28;5036402;27;96892;-35
2022/03/06 07:45:32;;;;;;;4.00;2.55;;;;;;;2.00;67.75;102855.50;5054714;27;97973;-36
2022/03/06 07:47:58;;;;;;;4.63;2.85;;;;;;;2.06;67.23;102844.81;5053543;27;126760;-35
2022/03/06 07:50:23;;;;;;;4.43;2.78;;;;;;;2.16;67.79;102860.91;5054436;27;106570;-35
2022/03/06 07:52:49;;;;;;;5.03;2.53;;;;;;;2.24;67.28;102856.50;5054739;27;96722;-34
2022/03/06 07:55:14;;;;;;;1.60;1.40;;;;;;;2.31;67.33;102856.56;5054594;27;97968;-35
2022/03/06 07:57:40;;;;;;;3.08;1.85;;;;;;;2.38;67.33;102848.53;5054443;27;111372;-34
2022/03/06 08:00:10;;;;;;;4.95;1.95;;;;;;;2.45;67.08;102859.28;5036238;27;96549;-35
2022/03/06 08:02:35;;;;;;;3.45;2.38;;;;;;;2.48;67.04;102853.97;5054153;27;96752;-35
2022/03/06 08:05:01;;;;;;;4.82;3.05;;;;;;;2.62;67.00;102859.38;5035512;27;100853;-35
2022/03/06 08:07:26;;;;;;;4.95;2.08;;;;;;;2.57;66.94;102845.06;5054114;27;97730;-34
2022/03/06 08:09:51;;;;;;;5.72;3.33;;;;;;;2.71;66.32;102863.84;5053757;27;117345;-35
2022/03/06 08:12:17;;;;;;;2.78;2.25;;;;;;;2.76;66.40;102868.34;5053559;27;121359;-34
2022/03/06 08:14:42;;;;;;;2.15;1.75;;;;;;;2.79;66.03;102866.53;5053968;27;99237;-35
2022/03/06 08:17:08;;;;;;;4.07;2.25;;;;;;;2.84;66.48;102883.53;5053370;27;97791;-34
2022/03/06 08:19:33;;;;;;;3.38;2.03;;;;;;;2.83;66.39;102887.97;5054140;27;96696;-35
2022/03/06 08:21:58;;;;;;;3.65;1.92;;;;;;;2.84;66.30;102888.88;5053650;27;118032;-34
2022/03/06 08:24:23;;;;;;;2.70;1.77;;;;;;;2.90;66.22;102894.25;5053903;27;106682;-35
2022/03/06 08:26:49;;;;;;;4.43;2.45;;;;;;;2.95;65.99;102882.66;5053003;27;119163;-34
2022/03/06 08:29:14;;;;;;;6.32;3.22;;;;;;;2.95;65.82;102882.66;5053811;27;96572;-35
2022/03/06 08:31:40;;;;;;;5.40;2.92;;;;;;;2.97;66.12;102888.00;5053847;27;96781;-35
2022/03/06 08:34:05;;;;;;;4.57;2.75;;;;;;;2.97;65.76;102896.94;5053956;27;97985;-35
2022/03/06 08:36:31;;;;;;;5.90;2.60;;;;;;;2.92;65.89;102879.97;5053809;27;97778;-35
2022/03/06 08:38:56;;;;;;;5.10;2.88;;;;;;;2.87;66.05;102873.72;5053812;27;96626;-34
2022/03/06 08:41:21;;;;;;;5.15;2.13;;;;;;;2.97;66.14;102886.22;5054010;27;96767;-35
2022/03/06 08:43:47;;;;;;;1.92;1.48;;;;;;;2.96;66.45;102894.28;5053891;27;97865;-34
2022/03/06 08:46:12;;;;;;;5.78;3.33;;;;;;;2.98;66.05;102905.88;5052868;27;127771;-35
2022/03/06 08:48:37;;;;;;;2.65;2.08;;;;;;;2.93;66.15;102888.88;5053342;27;106656;-35
2022/03/06 08:51:04;;;;;;;2.42;1.90;;;;;;;2.98;65.87;102898.75;5053533;27;96802;-34
2022/03/06 08:53:31;;;;;;;1.60;1.50;;;;;;;2.99;65.66;102899.63;5034709;27;100816;-35
2022/03/06 08:55:56;;;;;;;5.97;3.08;;;;;;;2.93;65.93;102903.19;5034991;27;101273;-34
2022/03/06 08:58:22;;;;;;;2.30;1.65;;;;;;;2.95;66.19;102892.47;5053472;27;96798;-34
2022/03/06 09:00:47;;;;;;;2.75;1.67;;;;;;;2.89;65.77;102893.34;5053074;27;96806;-34
2022/03/06 09:03:12;;;;;;;4.20;2.65;;;;;;;3.02;65.54;102896.06;5053324;27;104018;-34
2022/03/06 09:05:40;;;;;;;4.03;2.70;;;;;;;3.05;65.76;102890.72;5053014;27;105130;-34
2022/03/06 09:08:09;;;;;;;1.65;1.30;;;;;;;3.07;65.11;102894.28;5052724;27;96754;-34
2022/03/06 09:10:34;;;;;;;7.32;2.03;;;;;;;3.12;64.94;102900.53;5053629;27;96858;-34
2022/03/06 09:13:00;;;;;;;2.50;1.92;;;;;;;3.08;64.69;102888.94;5034893;27;101266;-34
2022/03/06 09:15:26;;;;;;;2.72;1.85;;;;;;;3.16;64.06;102905.03;5052777;27;99207;-35
2022/03/06 09:17:52;;;;;;;1.33;0.82;;;;;;;3.21;63.87;102888.97;5034449;27;97218;-34
2022/03/06 09:20:17;;;;;;;1.25;0.98;;;;;;;3.31;64.45;102886.31;5053354;27;96687;-34
2022/03/06 09:22:42;;;;;;;1.60;1.05;;;;;;;3.43;63.39;102896.13;5053352;27;97786;-34
2022/03/06 09:25:08;;;;;;;3.95;1.70;;;;;;;3.50;63.45;102895.25;5052073;27;127311;-34
2022/03/06 09:27:35;;;;;;;2.40;1.70;;;;;;;3.56;62.90;102881.88;5052928;27;96470;-34
2022/03/06 09:30:00;;;;;;;4.18;2.05;;;;;;;3.66;62.65;102895.28;5051535;27;96818;-34
2022/03/06 09:32:26;;;;;;;1.23;0.93;;;;;;;3.84;62.16;102906.00;5052953;27;97922;-35
2022/03/06 09:34:51;;;;;;;4.28;2.13;;;;;;;3.83;61.83;102894.34;5052612;27;115780;-34
2022/03/06 09:37:22;;;;;;;1.88;1.20;;;;;;;4.01;61.89;102890.78;5052574;27;109740;-34
2022/03/06 09:39:48;;;;;;;2.53;1.57;;;;;;;4.03;60.83;102885.44;5053051;27;96771;-34
2022/03/06 09:42:17;;;;;;;1.95;1.25;;;;;;;4.22;61.01;102892.53;5052287;27;97987;-34
2022/03/06 09:44:46;;;;;;;4.35;1.98;;;;;;;4.48;60.58;102899.59;5034329;27;101140;-34
2022/03/06 09:47:12;;;;;;;3.35;2.53;;;;;;;4.56;60.46;102888.88;5052925;27;96467;-34
2022/03/06 09:49:37;;;;;;;3.83;2.08;;;;;;;4.73;59.91;102896.84;5052931;27;96818;-34
2022/03/06 09:52:03;;;;;;;2.97;1.90;;;;;;;4.88;58.78;102900.34;5052619;27;97887;-34
2022/03/06 09:54:30;;;;;;;2.90;1.70;;;;;;;5.05;58.08;102884.16;5052393;27;99239;-34
2022/03/06 09:56:55;;;;;;;5.00;2.20;;;;;;;5.31;56.75;102897.44;5052548;27;96601;-35
2022/03/06 09:59:20;;;;;;;4.03;2.60;;;;;;;5.52;57.22;102890.13;5053337;27;96799;-34
2022/03/06 10:01:46;;;;;;;2.45;1.58;;;;;;;5.61;56.96;102878.41;5033312;27;129874;-35
2022/03/06 10:04:32;;;;;;;1.77;1.23;;;;;;;5.95;57.27;102889.78;5052650;27;97995;-34
2022/03/06 10:07:15;;;;;;;4.68;1.85;;;;;;;6.16;55.40;102896.75;5033674;27;97661;-34
2022/03/06 10:09:51;;;;;;;1.98;1.67;;;;;;;6.34;55.63;102888.50;5052282;27;96874;-34
2022/03/06 10:12:22;;;;;;;2.60;1.67;;;;;;;6.58;55.22;102889.13;5034142;27;100920;-34
2022/03/06 10:14:49;;;;;;;2.60;1.48;;;;;;;6.64;54.60;102882.78;5033914;27;98893;-34
2022/03/06 10:17:17;;;;;;;2.72;1.63;;;;;;;6.80;53.46;102897.84;5052600;27;96643;-34
2022/03/06 10:20:07;;;;;;;3.33;2.15;;;;;;;6.94;54.09;102890.47;5034067;27;96801;-35
2022/03/06 10:22:35;;;;;;;3.33;2.38;;;;;;;7.11;52.92;102875.88;5052060;27;99455;-34
2022/03/06 10:25:16;;;;;;;3.15;1.42;;;;;;;7.38;53.42;102888.03;5034136;27;100983;-34
2022/03/06 10:27:49;;;;;;;3.22;1.85;;;;;;;7.44;52.53;102909.53;5034061;27;96548;-34
2022/03/06 10:30:38;;;;;;;3.22;1.42;;;;;;;7.51;50.28;102883.31;5033687;27;96781;-34
2022/03/06 10:33:10;;;;;;;2.50;1.48;;;;;;;7.75;52.38;102891.03;5033255;27;100754;-35
2022/03/06 10:35:40;;;;;;;2.72;1.35;;;;;;;7.81;52.35;102887.34;5052215;27;97843;-35
2022/03/06 10:38:30;;;;;;;3.15;1.58;;;;;;;8.06;50.58;102901.28;5033951;27;96496;-34
2022/03/06 10:41:17;;;;;;;2.05;1.15;;;;;;;8.21;50.52;102894.72;5053368;27;96742;-35
2022/03/06 10:43:43;;;;;;;3.55;1.50;;;;;;;8.27;51.16;102900.91;5037157;27;101033;-34
2022/03/06 10:46:08;;;;;;;2.97;1.95;;;;;;;8.37;50.68;102904.31;5055637;27;97989;-35
2022/03/06 10:48:34;;;;;;;2.60;1.65;;;;;;;8.48;51.52;102905.00;5055844;27;96619;-34
2022/03/06 10:51:00;;;;;;;3.03;1.67;;;;;;;8.68;50.58;102898.34;5037551;27;96828;-35
2022/03/06 10:53:28;;;;;;;3.30;1.80;;;;;;;8.77;49.73;102902.63;5037071;27;100723;-34
2022/03/06 10:55:54;;;;;;;1.48;1.05;;;;;;;8.64;47.45;102900.19;5036941;27;100947;-35
2022/03/06 10:58:20;;;;;;;6.47;2.78;;;;;;;8.75;50.10;102913.50;5055051;27;96479;-34
2022/03/06 11:00:46;;;;;;;3.78;1.63;;;;;;;8.54;50.12;102885.09;5036808;27;96785;-35
2022/03/06 11:03:15;;;;;;;3.03;1.50;;;;;;;8.79;48.63;102898.97;5036985;27;100772;-34
2022/03/06 11:05:43;;;;;;;4.18;1.67;;;;;;;8.80;49.07;102884.56;5036706;27;101106;-35
2022/03/06 11:08:12;;;;;;;2.67;1.75;;;;;;;8.93;46.30;102891.47;5036560;27;96902;-34
2022/03/06 11:10:40;;;;;;;3.45;2.10;;;;;;;9.00;48.87;102894.06;5036947;27;96823;-34
2022/03/06 11:13:07;;;;;;;4.82;1.70;;;;;;;9.22;48.22;102887.22;5036794;27;101199;-35
2022/03/06 11:15:33;;;;;;;3.17;1.98;;;;;;;9.48;47.80;102899.25;5036987;27;101267;-35
2022/03/06 11:18:01;;;;;;;4.43;1.85;;;;;;;9.58;48.36;102895.38;5036695;27;96559;-35
2022/03/06 11:20:29;;;;;;;4.68;1.50;;;;;;;9.41;46.32;102890.38;5036650;27;96882;-35
2022/03/06 11:23:18;;;;;;;4.25;2.03;;;;;;;9.37;47.68;102888.69;5019352;27;100851;-35
2022/03/06 11:26:09;;;;;;;3.55;1.90;;;;;;;9.31;48.36;102897.84;5055385;27;97312;-35